Terminal Aerodrome Forecast
Issued by NWS

Home | Current Version | Previous Version | Text Only | Print | Product List | Glossary Off
Versions: 1 2 3 4 5 6 7 8 9 10 11 12 13 14 15 16 17 18 19

600
FTUS43 KTOP 180906 AAC
TAFFOE
TAF AMD
KFOE 180906Z 1809/1906 36018G28KT 4SM BR BKN004
     FM181100 34023G34KT P6SM VCSH SCT008 OVC012
      TEMPO 1812/1816 5SM -RA BR
     FM181600 32022G31KT P6SM FEW050 SCT150
     FM190000 31009KT P6SM SKC=

USA.gov is the U.S. government's official web portal to all federal, state and local government web resources and services.